sim
Sign-in with your pilot id or email,
or register
Callsign
Passwort

Schedule Details

Flight Number: OEO6042
Departure: Stuttgart Airport (EDDS) at 09:35
Arrival: Fuerteventura Airport (GCFV) at 14:25

Weather Information
Getting current METAR information for EDDS 231120Z 09004KT 020V150 CAVOK 31/11 Q1022 NOSIG
Getting current METAR information for GCFV 231100Z 06015KT 9999 FEW020 24/19 Q1017

Schedule Frequency

Route Map